Terminal Aerodrome Forecast
Issued by NWS

Home | Current Version | Previous Version | Text Only | Print | Product List | Glossary On
Versions: 1 2 3 4 5 6 7 8 9 10 11 12 13 14 15 16 17 18 19 20 21 22 23 24 25 26 27 28 29 30 31 32 33 34
000
FTUS43 KMKX 180520
TAFENW
TAF
KENW 180520Z 1806/1906 27007KT P6SM SKC
     FM181300 20005KT 4SM BR FEW130 FEW140
     FM181500 17008KT P6SM FEW008 SCT200
     FM181800 18014G24KT P6SM FEW015 SCT130
     FM190000 18015KT P6SM SCT150 WS020/20050KT=

USA.gov is the U.S. government's official web portal to all federal, state and local government web resources and services.